createdAt,value
2019-02-08T00:00:13.978Z,23.80
2019-02-08T00:02:18.643Z,24.30
2019-02-08T00:03:18.885Z,20.80
2019-02-08T00:05:23.519Z,21.40
2019-02-08T00:06:23.755Z,20.00
2019-02-08T00:08:28.417Z,18.90
2019-02-08T00:09:28.647Z,18.80
2019-02-08T00:11:33.325Z,24.80
2019-02-08T00:12:33.557Z,21.60
2019-02-08T00:14:38.213Z,23.80
2019-02-08T00:15:38.446Z,22.80
2019-02-08T00:17:43.115Z,25.40
2019-02-08T00:18:43.349Z,22.10
2019-02-08T00:20:47.495Z,23.50
2019-02-08T00:21:47.732Z,22.50
2019-02-08T00:23:52.411Z,22.90
2019-02-08T00:24:52.641Z,24.90
2019-02-08T00:26:46.225Z,22.00
2019-02-08T00:27:46.468Z,17.20
2019-02-08T00:29:51.102Z,17.70
2019-02-08T00:30:51.335Z,20.70
2019-02-08T00:32:56.005Z,17.60
2019-02-08T00:33:56.240Z,20.70
2019-02-08T00:36:00.385Z,20.60
2019-02-08T00:37:00.619Z,17.70
2019-02-08T00:39:04.796Z,17.50
2019-02-08T00:40:05.030Z,18.90
2019-02-08T00:42:09.694Z,15.40
2019-02-08T00:43:09.927Z,15.60
2019-02-08T00:45:14.569Z,17.30
2019-02-08T00:46:14.805Z,13.70
2019-02-08T00:48:18.981Z,13.20
2019-02-08T00:49:19.216Z,16.90
2019-02-08T00:51:23.859Z,16.60
2019-02-08T00:52:24.094Z,14.60
2019-02-08T00:54:28.271Z,14.70
2019-02-08T00:55:28.503Z,13.10
2019-02-08T00:57:21.600Z,13.70
2019-02-08T00:58:21.830Z,11.40
2019-02-08T01:00:26.474Z,12.00
2019-02-08T01:01:26.708Z,16.10
2019-02-08T01:03:30.880Z,13.80
2019-02-08T01:04:31.121Z,11.40
2019-02-08T01:06:35.765Z,12.70
2019-02-08T01:07:36.001Z,15.60
2019-02-08T01:09:40.660Z,12.30
2019-02-08T01:10:40.894Z,12.90
2019-02-08T01:12:45.558Z,13.10
2019-02-08T01:13:45.791Z,11.80
2019-02-08T01:15:49.939Z,14.10
2019-02-08T01:16:50.173Z,13.60
2019-02-08T01:18:54.341Z,14.20
2019-02-08T01:19:54.580Z,13.70
2019-02-08T01:21:58.727Z,13.60
2019-02-08T01:22:58.964Z,16.20
2019-02-08T01:25:03.132Z,13.60
2019-02-08T01:26:03.372Z,16.20
2019-02-08T01:28:07.538Z,14.00
2019-02-08T01:29:07.769Z,14.50
2019-02-08T01:31:11.920Z,13.70
2019-02-08T01:32:12.149Z,13.10
2019-02-08T01:34:16.320Z,13.50
2019-02-08T01:35:16.555Z,14.50
2019-02-08T01:37:10.125Z,11.70
2019-02-08T01:38:10.359Z,16.00
2019-02-08T01:40:14.535Z,12.80
2019-02-08T01:41:14.761Z,15.60
2019-02-08T01:43:18.935Z,17.10
2019-02-08T01:44:19.168Z,15.30
2019-02-08T01:46:23.330Z,16.40
2019-02-08T01:47:23.562Z,15.80
2019-02-08T01:49:28.221Z,14.30
2019-02-08T01:50:28.459Z,14.40
2019-02-08T01:52:33.099Z,15.70
2019-02-08T01:53:33.334Z,12.90
2019-02-08T01:55:37.510Z,15.60
2019-02-08T01:56:37.745Z,14.00
2019-02-08T01:58:41.919Z,15.50
2019-02-08T01:59:42.150Z,15.80
2019-02-08T02:01:46.303Z,13.30
2019-02-08T02:02:46.539Z,15.10
2019-02-08T02:04:51.205Z,14.00
2019-02-08T02:05:51.441Z,14.30
2019-02-08T02:07:56.083Z,13.40
2019-02-08T02:08:56.319Z,14.60
2019-02-08T02:11:00.488Z,17.70
2019-02-08T02:12:00.721Z,18.20
2019-02-08T02:14:04.901Z,17.40
2019-02-08T02:15:05.139Z,14.00
2019-02-08T02:16:58.217Z,15.10
2019-02-08T02:17:58.451Z,13.90
2019-02-08T02:20:02.626Z,15.80
2019-02-08T02:21:02.858Z,16.80
2019-02-08T02:23:07.504Z,16.30
2019-02-08T02:24:07.738Z,15.80
2019-02-08T02:26:12.920Z,16.50
2019-02-08T02:27:13.152Z,18.20
2019-02-08T02:29:17.320Z,16.60
2019-02-08T02:30:17.571Z,18.70
2019-02-08T02:32:21.698Z,17.00
2019-02-08T02:33:21.949Z,14.40
2019-02-08T02:35:26.110Z,16.70
2019-02-08T02:36:26.335Z,13.80
2019-02-08T02:38:30.517Z,14.00
2019-02-08T02:39:30.720Z,14.80
2019-02-08T02:41:34.900Z,14.50
2019-02-08T02:42:35.133Z,15.60
2019-02-08T02:44:39.301Z,14.70
2019-02-08T02:45:39.534Z,16.10
2019-02-08T02:47:44.175Z,12.90
2019-02-08T02:48:44.409Z,13.50
2019-02-08T02:50:48.577Z,13.10
2019-02-08T02:51:48.812Z,16.20
2019-02-08T02:53:53.457Z,13.10
2019-02-08T02:54:53.689Z,12.80
2019-02-08T02:56:47.280Z,12.40
2019-02-08T02:57:47.516Z,13.00
2019-02-08T02:59:51.687Z,13.00
2019-02-08T03:00:51.918Z,14.30
2019-02-08T03:02:56.066Z,12.60
2019-02-08T03:03:56.297Z,13.60
2019-02-08T03:06:00.471Z,10.10
2019-02-08T03:07:00.711Z,11.80
2019-02-08T03:09:04.854Z,11.40
2019-02-08T03:10:05.087Z,13.10
2019-02-08T03:12:09.750Z,9.40
2019-02-08T03:13:09.987Z,12.20
2019-02-08T03:15:14.129Z,12.90
2019-02-08T03:16:14.364Z,12.70
2019-02-08T03:18:18.546Z,8.40
2019-02-08T03:19:18.770Z,8.50
2019-02-08T03:21:22.934Z,10.50
2019-02-08T03:22:23.169Z,13.70
2019-02-08T03:24:27.323Z,9.00
2019-02-08T03:25:27.561Z,9.50
2019-02-08T03:27:20.662Z,9.40
2019-02-08T03:28:20.892Z,8.90
2019-02-08T03:30:25.065Z,9.80
2019-02-08T03:31:25.273Z,13.90
2019-02-08T03:33:29.437Z,9.40
2019-02-08T03:34:29.673Z,10.20
2019-02-08T03:36:33.843Z,10.90
2019-02-08T03:37:34.077Z,9.50
2019-02-08T03:39:38.725Z,12.10
2019-02-08T03:40:38.955Z,9.60
2019-02-08T03:42:43.618Z,8.80
2019-02-08T03:43:43.854Z,11.40
2019-02-08T03:45:48.499Z,13.30
2019-02-08T03:46:48.737Z,10.10
2019-02-08T03:48:52.900Z,11.80
2019-02-08T03:49:53.136Z,11.40
2019-02-08T03:51:57.313Z,10.00
2019-02-08T03:52:57.548Z,15.20
2019-02-08T03:55:01.692Z,11.60
2019-02-08T03:56:01.923Z,12.90
2019-02-08T03:58:06.090Z,12.10
2019-02-08T03:59:06.323Z,13.00
2019-02-08T04:01:10.467Z,14.30
2019-02-08T04:02:10.702Z,15.60
2019-02-08T04:04:15.367Z,14.40
2019-02-08T04:05:15.600Z,9.40
2019-02-08T04:07:08.684Z,13.60
2019-02-08T04:08:08.920Z,14.30
2019-02-08T04:10:13.089Z,13.20
2019-02-08T04:11:13.324Z,15.40
2019-02-08T04:13:17.503Z,17.50
2019-02-08T04:14:17.733Z,16.60
2019-02-08T04:16:21.887Z,19.80
2019-02-08T04:17:22.122Z,14.70
2019-02-08T04:19:26.290Z,19.10
2019-02-08T04:20:26.530Z,15.40
2019-02-08T04:22:30.694Z,16.60
2019-02-08T04:23:30.929Z,16.60
2019-02-08T04:25:35.095Z,14.80
2019-02-08T04:26:35.338Z,18.20
2019-02-08T04:28:39.503Z,18.30
2019-02-08T04:29:39.737Z,18.10
2019-02-08T04:31:44.392Z,14.30
2019-02-08T04:32:44.628Z,13.70
2019-02-08T04:34:49.284Z,17.00
2019-02-08T04:35:49.513Z,18.30
2019-02-08T04:37:54.153Z,13.60
2019-02-08T04:38:54.395Z,16.90
2019-02-08T04:40:58.568Z,14.50
2019-02-08T04:41:58.803Z,16.10
2019-02-08T04:44:02.969Z,17.80
2019-02-08T04:45:03.203Z,16.00
2019-02-08T04:46:56.283Z,12.40
2019-02-08T04:47:56.522Z,14.20
2019-02-08T04:50:01.187Z,12.40
2019-02-08T04:51:01.421Z,12.90
2019-02-08T04:53:06.065Z,10.80
2019-02-08T04:54:06.300Z,12.80
2019-02-08T04:56:10.467Z,16.40
2019-02-08T04:57:10.703Z,13.60
2019-02-08T04:59:14.869Z,12.10
2019-02-08T05:00:15.101Z,12.80
2019-02-08T05:02:19.249Z,11.30
2019-02-08T05:03:19.485Z,9.40
2019-02-08T05:05:23.668Z,10.40
2019-02-08T05:06:23.884Z,12.80
2019-02-08T05:08:28.042Z,10.50
2019-02-08T05:09:28.280Z,12.20
2019-02-08T05:11:32.446Z,9.60
2019-02-08T05:12:32.680Z,12.20
2019-02-08T05:14:37.343Z,14.20
2019-02-08T05:15:37.580Z,10.20
2019-02-08T05:17:31.139Z,11.00
2019-02-08T05:18:31.373Z,13.20
2019-02-08T05:20:35.544Z,11.20
2019-02-08T05:21:35.778Z,11.20
2019-02-08T05:23:39.933Z,12.70
2019-02-08T05:24:45.875Z,12.20
2019-02-08T05:26:33.761Z,12.00
2019-02-08T05:27:33.994Z,13.20
2019-02-08T05:29:38.170Z,13.90
2019-02-08T05:30:38.411Z,12.40
2019-02-08T05:32:43.045Z,14.20
2019-02-08T05:33:43.280Z,10.90
2019-02-08T05:35:47.939Z,14.10
2019-02-08T05:36:48.168Z,12.70
2019-02-08T05:38:52.819Z,11.70
2019-02-08T05:39:53.043Z,11.00
2019-02-08T05:41:57.215Z,11.10
2019-02-08T05:42:57.450Z,12.80
2019-02-08T05:45:01.644Z,11.90
2019-02-08T05:46:01.870Z,10.40
2019-02-08T05:48:06.026Z,11.00
2019-02-08T05:49:06.258Z,13.30
2019-02-08T05:51:10.921Z,12.10
2019-02-08T05:52:11.155Z,12.70
2019-02-08T05:54:15.798Z,11.20
2019-02-08T05:55:16.037Z,11.30
2019-02-08T05:57:09.621Z,12.40
2019-02-08T05:58:09.857Z,11.40
2019-02-08T06:00:14.495Z,9.40
2019-02-08T06:01:14.732Z,9.00
2019-02-08T06:03:19.403Z,10.20
2019-02-08T06:04:19.637Z,11.10
2019-02-08T06:06:32.946Z,9.00
2019-02-08T06:07:24.691Z,11.00
2019-02-08T06:09:29.336Z,7.60
2019-02-08T06:10:29.567Z,6.40
2019-02-08T06:12:34.236Z,12.50
2019-02-08T06:13:34.479Z,10.70
2019-02-08T06:15:39.169Z,10.00
2019-02-08T06:16:39.373Z,11.20
2019-02-08T06:18:44.016Z,7.80
2019-02-08T06:19:44.266Z,9.90
2019-02-08T06:21:48.937Z,9.70
2019-02-08T06:22:49.164Z,9.70
2019-02-08T06:24:53.822Z,10.60
2019-02-08T06:25:54.047Z,11.00
2019-02-08T06:27:58.715Z,11.70
2019-02-08T06:28:58.947Z,14.20
2019-02-08T06:31:03.619Z,11.60
2019-02-08T06:32:03.852Z,12.20
2019-02-08T06:34:08.503Z,11.20
2019-02-08T06:35:08.811Z,9.90
2019-02-08T06:37:02.363Z,13.00
2019-02-08T06:38:02.582Z,13.10
2019-02-08T06:40:07.239Z,15.00
2019-02-08T06:41:07.462Z,10.00
2019-02-08T06:43:12.164Z,12.90
2019-02-08T06:44:12.403Z,10.90
2019-02-08T06:46:17.035Z,10.00
2019-02-08T06:47:17.253Z,13.90
2019-02-08T06:49:21.929Z,10.50
2019-02-08T06:50:22.128Z,9.30
2019-02-08T06:52:26.858Z,13.50
2019-02-08T06:53:27.056Z,20.50
2019-02-08T06:55:31.192Z,12.40
2019-02-08T06:56:31.423Z,15.60
2019-02-08T06:58:35.577Z,12.50
2019-02-08T06:59:35.810Z,10.40
2019-02-08T07:01:40.654Z,10.40
2019-02-08T07:02:40.722Z,12.40
2019-02-08T07:04:45.521Z,9.80
2019-02-08T07:05:45.622Z,16.00
2019-02-08T07:07:50.262Z,10.70
2019-02-08T07:08:50.547Z,12.10
2019-02-08T07:10:55.253Z,11.40
2019-02-08T07:11:55.441Z,14.00
2019-02-08T07:14:00.119Z,14.50
2019-02-08T07:15:00.279Z,8.50
2019-02-08T07:16:53.340Z,13.00
2019-02-08T07:17:53.576Z,10.10
2019-02-08T07:19:57.742Z,14.20
2019-02-08T07:20:57.979Z,9.90
2019-02-08T07:23:02.145Z,13.90
2019-02-08T07:24:02.380Z,14.80
2019-02-08T07:26:06.534Z,10.90
2019-02-08T07:27:06.763Z,15.60
2019-02-08T07:29:11.418Z,13.10
2019-02-08T07:30:11.661Z,13.60
2019-02-08T07:32:15.806Z,12.00
2019-02-08T07:33:16.043Z,12.50
2019-02-08T07:35:20.226Z,12.20
2019-02-08T07:36:20.451Z,11.60
2019-02-08T07:38:24.627Z,13.20
2019-02-08T07:39:24.861Z,12.50
2019-02-08T07:41:29.525Z,12.40
2019-02-08T07:42:29.753Z,11.60
2019-02-08T07:44:33.917Z,10.60
2019-02-08T07:45:34.151Z,10.80
2019-02-08T07:47:27.226Z,17.40
2019-02-08T07:48:27.459Z,17.50
2019-02-08T07:50:31.628Z,13.60
2019-02-08T07:51:31.863Z,11.70
2019-02-08T07:53:36.036Z,11.40
2019-02-08T07:54:36.274Z,10.80
2019-02-08T07:56:40.420Z,11.60
2019-02-08T07:57:40.655Z,11.80
2019-02-08T07:59:44.831Z,12.20
2019-02-08T08:00:45.066Z,8.80
2019-02-08T08:02:49.212Z,9.40
2019-02-08T08:03:49.550Z,9.00
2019-02-08T08:05:55.104Z,13.30
2019-02-08T08:06:55.349Z,14.20
2019-02-08T08:08:59.508Z,11.90
2019-02-08T08:09:59.757Z,9.50
2019-02-08T08:12:03.884Z,10.20
2019-02-08T08:13:04.120Z,11.90
2019-02-08T08:15:08.290Z,10.50
2019-02-08T08:16:08.523Z,12.20
2019-02-08T08:18:12.682Z,11.70
2019-02-08T08:19:12.917Z,13.90
2019-02-08T08:21:17.090Z,11.30
2019-02-08T08:22:17.324Z,8.80
2019-02-08T08:24:21.500Z,10.70
2019-02-08T08:25:21.737Z,12.40
2019-02-08T08:27:14.816Z,14.60
2019-02-08T08:28:15.047Z,13.20
2019-02-08T08:30:19.215Z,12.20
2019-02-08T08:31:19.449Z,12.00
2019-02-08T08:33:23.607Z,12.30
2019-02-08T08:34:23.843Z,11.10
2019-02-08T08:36:28.502Z,10.30
2019-02-08T08:37:28.737Z,11.50
2019-02-08T08:39:32.911Z,12.20
2019-02-08T08:40:33.153Z,13.80
2019-02-08T08:42:37.294Z,11.30
2019-02-08T08:43:37.531Z,10.10
2019-02-08T08:45:41.696Z,12.20
2019-02-08T08:46:41.927Z,13.80
2019-02-08T08:48:46.077Z,9.60
2019-02-08T08:49:46.311Z,10.70
2019-02-08T08:51:50.483Z,10.30
2019-02-08T08:52:50.717Z,11.80
2019-02-08T08:54:54.895Z,9.30
2019-02-08T08:55:55.127Z,19.00
2019-02-08T08:57:59.279Z,11.30
2019-02-08T08:58:59.513Z,12.20
2019-02-08T09:01:03.683Z,10.90
2019-02-08T09:02:03.918Z,10.40
2019-02-08T09:04:08.064Z,11.90
2019-02-08T09:05:08.302Z,13.60
2019-02-08T09:07:01.397Z,10.70
2019-02-08T09:08:01.635Z,10.90
2019-02-08T09:10:06.303Z,10.80
2019-02-08T09:11:06.539Z,9.20
2019-02-08T09:13:14.810Z,11.50
2019-02-08T09:14:11.424Z,11.40
2019-02-08T09:16:15.606Z,10.50
2019-02-08T09:17:15.844Z,12.80
2019-02-08T09:19:20.000Z,10.10
2019-02-08T09:20:20.233Z,14.30
2019-02-08T09:22:24.396Z,12.70
2019-02-08T09:23:24.629Z,9.60
2019-02-08T09:25:28.806Z,11.00
2019-02-08T09:26:29.040Z,9.80
2019-02-08T09:28:33.195Z,11.30
2019-02-08T09:29:33.435Z,9.80
2019-02-08T09:31:37.609Z,9.10
2019-02-08T09:32:37.848Z,9.10
2019-02-08T09:34:42.019Z,8.60
2019-02-08T09:35:42.253Z,8.20
2019-02-08T09:37:46.434Z,10.30
2019-02-08T09:38:46.665Z,10.60
2019-02-08T09:40:39.787Z,6.70
2019-02-08T09:41:40.021Z,17.00
2019-02-08T09:43:44.176Z,11.00
2019-02-08T09:44:44.409Z,8.70
2019-02-08T09:46:37.518Z,9.80
2019-02-08T09:47:37.755Z,9.50
2019-02-08T09:49:41.906Z,8.80
2019-02-08T09:50:42.144Z,9.50
2019-02-08T09:52:46.320Z,8.10
2019-02-08T09:53:46.556Z,7.80
2019-02-08T09:55:57.492Z,7.20
2019-02-08T09:56:50.965Z,6.50
2019-02-08T09:58:55.127Z,9.20
2019-02-08T09:59:55.360Z,7.10
2019-02-08T10:01:59.537Z,9.20
2019-02-08T10:02:59.776Z,6.80
2019-02-08T10:05:03.927Z,9.70
2019-02-08T10:06:04.162Z,9.50
2019-02-08T10:08:08.343Z,7.90
2019-02-08T10:09:08.580Z,8.90
2019-02-08T10:11:12.760Z,5.90
2019-02-08T10:12:12.999Z,8.50
2019-02-08T10:14:17.154Z,6.80
2019-02-08T10:15:17.384Z,7.70
2019-02-08T10:17:10.487Z,6.60
2019-02-08T10:18:10.727Z,10.80
2019-02-08T10:20:14.879Z,7.20
2019-02-08T10:21:15.114Z,6.50
2019-02-08T10:23:19.290Z,7.00
2019-02-08T10:24:19.528Z,5.80
2019-02-08T10:26:23.706Z,6.50
2019-02-08T10:27:23.944Z,7.80
2019-02-08T10:29:28.092Z,8.60
2019-02-08T10:30:28.329Z,8.00
2019-02-08T10:32:32.510Z,6.50
2019-02-08T10:33:32.746Z,8.70
2019-02-08T10:35:36.902Z,7.00
2019-02-08T10:36:37.140Z,5.10
2019-02-08T10:38:41.312Z,7.20
2019-02-08T10:39:41.550Z,10.20
2019-02-08T10:41:45.721Z,6.30
2019-02-08T10:42:46.005Z,4.50
2019-02-08T10:44:50.124Z,8.00
2019-02-08T10:45:50.362Z,7.60
2019-02-08T10:47:54.547Z,4.70
2019-02-08T10:48:54.784Z,4.40
2019-02-08T10:50:58.944Z,7.10
2019-02-08T10:51:59.180Z,5.90
2019-02-08T10:54:03.363Z,5.00
2019-02-08T10:55:03.606Z,4.40
2019-02-08T10:56:56.715Z,6.90
2019-02-08T10:57:56.967Z,6.60
2019-02-08T11:00:01.118Z,4.80
2019-02-08T11:01:01.348Z,4.30
2019-02-08T11:03:05.525Z,4.00
2019-02-08T11:04:05.763Z,5.80
2019-02-08T11:06:09.929Z,7.80
2019-02-08T11:07:10.159Z,6.00
2019-02-08T11:09:14.348Z,4.10
2019-02-08T11:10:14.579Z,5.80
2019-02-08T11:12:18.758Z,6.10
2019-02-08T11:13:18.991Z,7.90
2019-02-08T11:15:23.152Z,8.70
2019-02-08T11:16:23.389Z,8.00
2019-02-08T11:18:27.563Z,4.60
2019-02-08T11:19:27.800Z,6.90
2019-02-08T11:21:31.973Z,5.00
2019-02-08T11:22:32.190Z,5.20
2019-02-08T11:24:36.374Z,7.20
2019-02-08T11:25:36.608Z,5.30
2019-02-08T11:27:29.718Z,5.70
2019-02-08T11:28:29.956Z,5.70
2019-02-08T11:30:34.116Z,6.60
2019-02-08T11:31:34.354Z,6.10
2019-02-08T11:33:38.527Z,6.40
2019-02-08T11:34:38.769Z,8.10
2019-02-08T11:36:43.939Z,5.30
2019-02-08T11:37:44.171Z,4.10
2019-02-08T11:39:49.392Z,3.00
2019-02-08T11:40:49.638Z,5.40
2019-02-08T11:42:53.814Z,5.90
2019-02-08T11:43:54.039Z,3.80
2019-02-08T11:45:58.191Z,5.30
2019-02-08T11:46:58.430Z,6.20
2019-02-08T11:49:02.606Z,5.50
2019-02-08T11:50:02.844Z,7.30
2019-02-08T11:52:06.995Z,4.00
2019-02-08T11:53:07.248Z,5.90
2019-02-08T11:55:11.414Z,7.20
2019-02-08T11:56:11.650Z,5.80
2019-02-08T11:58:15.824Z,8.10
2019-02-08T11:59:16.072Z,6.10
2019-02-08T12:01:20.222Z,5.00
2019-02-08T12:02:20.465Z,4.90
2019-02-08T12:04:24.642Z,4.90
2019-02-08T12:05:24.869Z,4.70
2019-02-08T12:07:17.953Z,8.60
2019-02-08T12:08:18.192Z,7.30
2019-02-08T12:10:22.360Z,4.20
2019-02-08T12:11:22.594Z,4.70
2019-02-08T12:13:27.655Z,3.90
2019-02-08T12:14:27.861Z,7.20
2019-02-08T12:16:32.021Z,4.40
2019-02-08T12:17:32.261Z,3.20
2019-02-08T12:19:36.442Z,5.60
2019-02-08T12:20:36.679Z,3.10
2019-02-08T12:22:40.831Z,5.40
2019-02-08T12:23:41.071Z,2.90
2019-02-08T12:25:45.244Z,4.20
2019-02-08T12:26:45.489Z,5.40
2019-02-08T12:28:49.658Z,4.60
2019-02-08T12:29:49.899Z,2.20
2019-02-08T12:31:54.055Z,3.20
2019-02-08T12:32:54.291Z,4.20
2019-02-08T12:34:58.468Z,6.40
2019-02-08T12:35:58.706Z,4.30
2019-02-08T12:38:02.859Z,5.70
2019-02-08T12:39:03.096Z,3.30
2019-02-08T12:41:09.812Z,4.40
2019-02-08T12:42:07.509Z,5.30
2019-02-08T12:44:11.693Z,11.20
2019-02-08T12:45:11.969Z,7.00
2019-02-08T12:47:05.096Z,6.30
2019-02-08T12:48:05.440Z,4.80
2019-02-08T12:50:10.419Z,2.70
2019-02-08T12:51:10.006Z,5.50
2019-02-08T12:53:14.246Z,6.90
2019-02-08T12:54:14.659Z,3.70
2019-02-08T12:56:19.007Z,3.60
2019-02-08T12:57:19.165Z,3.20
2019-02-08T12:59:23.413Z,3.50
2019-02-08T13:00:23.642Z,6.00
2019-02-08T13:02:27.853Z,6.10
2019-02-08T13:03:28.089Z,3.80
2019-02-08T13:05:32.351Z,2.70
2019-02-08T13:06:32.586Z,5.50
2019-02-08T13:08:36.766Z,3.30
2019-02-08T13:09:37.128Z,3.60
2019-02-08T13:11:41.446Z,2.40
2019-02-08T13:12:41.791Z,5.30
2019-02-08T13:14:45.938Z,4.00
2019-02-08T13:15:46.278Z,4.80
2019-02-08T13:17:50.470Z,4.20
2019-02-08T13:18:50.720Z,4.90
2019-02-08T13:20:54.897Z,3.10
2019-02-08T13:21:55.153Z,4.00
2019-02-08T13:23:59.358Z,3.90
2019-02-08T13:24:59.725Z,5.30
2019-02-08T13:26:53.194Z,3.80
2019-02-08T13:27:53.285Z,3.90
2019-02-08T13:29:57.494Z,2.50
2019-02-08T13:30:57.717Z,3.50
2019-02-08T13:33:02.014Z,3.70
2019-02-08T13:34:02.331Z,2.90
2019-02-08T13:36:06.637Z,5.30
2019-02-08T13:37:07.038Z,2.90
2019-02-08T13:39:11.214Z,5.70
2019-02-08T13:40:11.453Z,4.10
2019-02-08T13:42:15.621Z,3.00
2019-02-08T13:43:16.040Z,4.30
2019-02-08T13:45:20.203Z,3.60
2019-02-08T13:46:20.435Z,5.90
2019-02-08T13:48:24.611Z,7.50
2019-02-08T13:49:24.847Z,3.40
2019-02-08T13:51:29.024Z,4.00
2019-02-08T13:52:29.361Z,6.30
2019-02-08T13:54:33.525Z,6.40
2019-02-08T13:55:33.905Z,5.40
2019-02-08T13:57:27.072Z,6.40
2019-02-08T13:58:27.386Z,5.60
2019-02-08T14:00:31.575Z,4.60
2019-02-08T14:01:31.899Z,4.60
2019-02-08T14:03:36.066Z,3.80
2019-02-08T14:04:36.329Z,4.40
2019-02-08T14:06:40.680Z,4.00
2019-02-08T14:07:40.993Z,4.80
2019-02-08T14:09:45.143Z,5.20
2019-02-08T14:10:45.377Z,7.40
2019-02-08T14:12:49.559Z,6.90
2019-02-08T14:13:49.967Z,6.20
2019-02-08T14:15:54.180Z,6.60
2019-02-08T14:16:54.431Z,4.20
2019-02-08T14:18:58.791Z,5.70
2019-02-08T14:19:58.903Z,4.40
2019-02-08T14:22:03.105Z,5.60
2019-02-08T14:23:03.337Z,4.50
2019-02-08T14:25:19.870Z,6.10
2019-02-08T14:26:20.150Z,4.40
2019-02-08T14:28:24.346Z,4.70
2019-02-08T14:29:24.581Z,3.90
2019-02-08T14:31:28.805Z,6.10
2019-02-08T14:32:29.113Z,6.20
2019-02-08T14:34:33.279Z,3.60
2019-02-08T14:35:33.606Z,3.60
2019-02-08T14:37:26.850Z,8.00
2019-02-08T14:38:26.947Z,22.60
2019-02-08T14:40:31.111Z,42.00
2019-02-08T14:41:32.112Z,22.20
2019-02-08T14:43:35.830Z,13.60
2019-02-08T14:44:36.212Z,47.80
2019-02-08T14:46:40.444Z,190.80
2019-02-08T14:47:41.977Z,106.90
2019-02-08T14:49:44.967Z,16.30
2019-02-08T14:50:45.349Z,16.10
2019-02-08T14:52:49.663Z,33.00
2019-02-08T14:53:49.893Z,31.10
2019-02-08T14:55:54.081Z,38.50
2019-02-08T14:56:54.315Z,53.40
2019-02-08T14:58:58.523Z,63.50
2019-02-08T14:59:58.753Z,34.20
2019-02-08T15:02:02.897Z,34.10
2019-02-08T15:03:03.165Z,60.50
2019-02-08T15:05:08.566Z,133.60
2019-02-08T15:06:09.453Z,72.70
2019-02-08T15:08:12.883Z,101.80
2019-02-08T15:09:12.902Z,69.30
2019-02-08T15:11:17.058Z,167.10
2019-02-08T15:12:17.320Z,151.40
2019-02-08T15:14:21.651Z,97.10
2019-02-08T15:15:22.048Z,198.50
2019-02-08T15:17:15.167Z,73.00
2019-02-08T15:18:16.077Z,65.50
2019-02-08T15:20:19.733Z,120.90
2019-02-08T15:21:20.009Z,61.80
2019-02-08T15:23:24.418Z,98.10
2019-02-08T15:24:24.434Z,34.10
2019-02-08T15:26:28.636Z,17.80
2019-02-08T15:27:28.939Z,17.00
2019-02-08T15:29:34.166Z,21.50
2019-02-08T15:30:35.122Z,73.90
2019-02-08T15:32:39.683Z,18.30
2019-02-08T15:33:39.938Z,36.10
2019-02-08T15:35:45.135Z,20.20
2019-02-08T15:36:49.164Z,9.10
2019-02-08T15:38:49.578Z,5.40
2019-02-08T15:39:49.814Z,6.20
2019-02-08T15:41:53.983Z,4.90
2019-02-08T15:42:54.191Z,4.60
2019-02-08T15:44:58.420Z,4.90
2019-02-08T15:45:58.651Z,2.70
2019-02-08T15:48:02.887Z,6.00
2019-02-08T15:49:03.159Z,10.10
2019-02-08T15:51:07.331Z,8.50
2019-02-08T15:52:07.578Z,6.40
2019-02-08T15:54:11.783Z,6.30
2019-02-08T15:55:12.058Z,6.00
2019-02-08T15:57:05.137Z,2.70
2019-02-08T15:58:05.402Z,3.90
2019-02-08T16:00:09.573Z,2.90
2019-02-08T16:01:09.835Z,4.30
2019-02-08T16:03:14.013Z,6.00
2019-02-08T16:04:14.233Z,6.70
2019-02-08T16:06:18.399Z,4.40
2019-02-08T16:07:18.660Z,4.60
2019-02-08T16:09:22.826Z,4.70
2019-02-08T16:10:23.059Z,6.00
2019-02-08T16:12:27.231Z,3.40
2019-02-08T16:13:27.452Z,3.80
2019-02-08T16:15:31.623Z,5.50
2019-02-08T16:16:31.864Z,7.50
2019-02-08T16:18:36.031Z,3.80
2019-02-08T16:19:36.268Z,3.40
2019-02-08T16:21:40.413Z,4.20
2019-02-08T16:22:40.651Z,2.80
2019-02-08T16:24:44.820Z,3.90
2019-02-08T16:25:45.056Z,2.00
2019-02-08T16:27:49.198Z,8.10
2019-02-08T16:28:49.441Z,4.10
2019-02-08T16:30:53.603Z,4.10
2019-02-08T16:31:53.837Z,2.20
2019-02-08T16:33:58.037Z,2.30
2019-02-08T16:34:58.239Z,7.10
2019-02-08T16:36:51.312Z,5.00
2019-02-08T16:37:51.555Z,3.20
2019-02-08T16:39:55.714Z,4.30
2019-02-08T16:40:55.952Z,3.70
2019-02-08T16:43:00.100Z,3.00
2019-02-08T16:44:00.335Z,4.60
2019-02-08T16:46:04.502Z,4.40
2019-02-08T16:47:04.738Z,8.30
2019-02-08T16:49:08.887Z,16.20
2019-02-08T16:50:09.122Z,25.70
2019-02-08T16:52:13.294Z,40.20
2019-02-08T16:53:13.532Z,38.80
2019-02-08T16:55:17.710Z,30.90
2019-02-08T16:56:17.942Z,36.60
2019-02-08T16:58:22.087Z,27.20
2019-02-08T16:59:22.324Z,35.00
2019-02-08T17:01:26.490Z,64.40
2019-02-08T17:02:26.729Z,40.60
2019-02-08T17:04:30.899Z,52.90
2019-02-08T17:05:31.136Z,18.10
2019-02-08T17:07:24.232Z,25.00
2019-02-08T17:08:24.470Z,31.90
2019-02-08T17:10:28.637Z,33.00
2019-02-08T17:11:28.878Z,22.80
2019-02-08T17:13:33.027Z,13.90
2019-02-08T17:14:33.291Z,11.10
2019-02-08T17:16:37.425Z,13.90
2019-02-08T17:17:37.661Z,7.80
2019-02-08T17:19:41.826Z,7.40
2019-02-08T17:20:42.050Z,7.60
2019-02-08T17:22:46.220Z,15.90
2019-02-08T17:23:46.455Z,5.50
2019-02-08T17:25:50.624Z,22.50
2019-02-08T17:26:50.861Z,17.20
2019-02-08T17:28:55.006Z,8.00
2019-02-08T17:29:55.315Z,10.30
2019-02-08T17:31:59.457Z,4.60
2019-02-08T17:32:59.730Z,4.70
2019-02-08T17:35:03.876Z,7.80
2019-02-08T17:36:04.111Z,7.80
2019-02-08T17:38:08.360Z,5.80
2019-02-08T17:39:08.621Z,6.50
2019-02-08T17:41:12.787Z,6.20
2019-02-08T17:42:13.026Z,5.80
2019-02-08T17:44:17.197Z,4.80
2019-02-08T17:45:17.455Z,3.70
2019-02-08T17:47:10.587Z,5.20
2019-02-08T17:48:10.813Z,4.10
2019-02-08T17:50:14.972Z,3.70
2019-02-08T17:51:15.255Z,4.10
2019-02-08T17:53:19.423Z,4.60
2019-02-08T17:54:25.533Z,5.70
2019-02-08T17:56:23.863Z,10.90
2019-02-08T17:57:24.133Z,55.50
2019-02-08T17:59:28.291Z,35.20
2019-02-08T18:00:28.525Z,136.60
2019-02-08T18:02:32.731Z,29.90
2019-02-08T18:03:32.962Z,57.10
2019-02-08T18:05:37.140Z,27.40
2019-02-08T18:06:37.396Z,17.20
2019-02-08T18:08:41.624Z,7.20
2019-02-08T18:09:41.859Z,7.20
2019-02-08T18:11:46.073Z,2.60
2019-02-08T18:12:46.344Z,4.10
2019-02-08T18:14:50.539Z,4.70
2019-02-08T18:15:50.770Z,2.20
2019-02-08T18:17:54.944Z,4.00
2019-02-08T18:18:55.174Z,4.70
2019-02-08T18:20:59.321Z,8.70
2019-02-08T18:21:59.557Z,4.30
2019-02-08T18:24:03.728Z,5.30
2019-02-08T18:25:04.049Z,5.30
2019-02-08T18:26:57.126Z,6.50
2019-02-08T18:27:57.360Z,4.90
2019-02-08T18:30:01.586Z,4.90
2019-02-08T18:31:01.865Z,3.60
2019-02-08T18:33:06.034Z,4.30
2019-02-08T18:34:06.380Z,6.20
2019-02-08T18:36:10.555Z,4.40
2019-02-08T18:37:10.824Z,4.50
2019-02-08T18:39:14.989Z,4.90
2019-02-08T18:40:15.225Z,4.30
2019-02-08T18:42:19.455Z,3.60
2019-02-08T18:43:19.729Z,3.10
2019-02-08T18:45:23.908Z,3.30
2019-02-08T18:46:24.166Z,4.60
2019-02-08T18:48:28.409Z,3.90
2019-02-08T18:49:28.644Z,3.60
2019-02-08T18:51:33.813Z,3.70
2019-02-08T18:52:34.047Z,4.20
2019-02-08T18:54:38.211Z,5.00
2019-02-08T18:55:38.476Z,5.50
2019-02-08T18:57:31.593Z,8.10
2019-02-08T18:58:31.898Z,9.20
2019-02-08T19:00:39.919Z,99.20
2019-02-08T19:01:37.318Z,87.30
2019-02-08T19:03:41.535Z,126.80
2019-02-08T19:04:41.772Z,43.40
2019-02-08T19:06:45.954Z,56.50
2019-02-08T19:07:46.222Z,33.10
2019-02-08T19:09:50.404Z,19.00
2019-02-08T19:10:50.630Z,14.80
2019-02-08T19:12:54.774Z,44.20
2019-02-08T19:13:55.012Z,35.80
2019-02-08T19:15:59.180Z,14.20
2019-02-08T19:16:59.428Z,28.00
2019-02-08T19:19:03.587Z,7.70
2019-02-08T19:20:03.821Z,4.10
2019-02-08T19:22:07.964Z,4.60
2019-02-08T19:23:08.197Z,6.60
2019-02-08T19:25:12.368Z,4.80
2019-02-08T19:26:12.608Z,9.20
2019-02-08T19:28:16.755Z,9.10
2019-02-08T19:29:16.993Z,6.60
2019-02-08T19:31:21.162Z,5.00
2019-02-08T19:32:21.394Z,6.00
2019-02-08T19:34:25.557Z,6.50
2019-02-08T19:35:25.797Z,5.00
2019-02-08T19:37:18.875Z,4.60
2019-02-08T19:38:19.112Z,4.70
2019-02-08T19:40:23.283Z,5.40
2019-02-08T19:41:23.529Z,9.10
2019-02-08T19:43:27.750Z,148.50
2019-02-08T19:44:27.918Z,21.70
2019-02-08T19:46:32.092Z,3.50
2019-02-08T19:47:32.328Z,8.30
2019-02-08T19:49:36.490Z,9.70
2019-02-08T19:50:36.730Z,8.20
2019-02-08T19:52:40.880Z,9.20
2019-02-08T19:53:41.116Z,6.30
2019-02-08T19:55:45.284Z,5.30
2019-02-08T19:56:45.525Z,5.50
2019-02-08T19:58:49.670Z,4.10